sensor_id;sensor_type;location;lat;lon;timestamp;pressure;altitude;pressure_sealevel;temperature
73894;BMP280;62699;50.534;12.784;2022-09-13T00:03:43;96246.22;;;13.56
73894;BMP280;62699;50.534;12.784;2022-09-13T00:09:03;96236.63;;;13.55
73894;BMP280;62699;50.534;12.784;2022-09-13T00:14:23;96231.00;;;13.53
73894;BMP280;62699;50.534;12.784;2022-09-13T00:19:45;96227.16;;;13.49
73894;BMP280;62699;50.534;12.784;2022-09-13T00:25:06;96215.63;;;13.29
73894;BMP280;62699;50.534;12.784;2022-09-13T00:30:25;96212.13;;;13.16
73894;BMP280;62699;50.534;12.784;2022-09-13T00:35:45;96197.81;;;13.21
73894;BMP280;62699;50.534;12.784;2022-09-13T00:41:04;96201.41;;;13.10
73894;BMP280;62699;50.534;12.784;2022-09-13T00:46:41;96188.31;;;13.14
73894;BMP280;62699;50.534;12.784;2022-09-13T00:52:07;96175.75;;;12.98
73894;BMP280;62699;50.534;12.784;2022-09-13T00:57:39;96179.84;;;13.05
73894;BMP280;62699;50.534;12.784;2022-09-13T01:03:01;96181.91;;;12.99
73894;BMP280;62699;50.534;12.784;2022-09-13T01:08:22;96181.91;;;12.99
73894;BMP280;62699;50.534;12.784;2022-09-13T01:13:42;96176.22;;;12.83
73894;BMP280;62699;50.534;12.784;2022-09-13T01:19:02;96171.97;;;12.69
73894;BMP280;62699;50.534;12.784;2022-09-13T01:24:43;96171.00;;;12.85
73894;BMP280;62699;50.534;12.784;2022-09-13T01:30:17;96166.13;;;12.65
73894;BMP280;62699;50.534;12.784;2022-09-13T01:47:40;96158.75;;;12.66
73894;BMP280;62699;50.534;12.784;2022-09-13T01:52:59;96157.81;;;12.63
73894;BMP280;62699;50.534;12.784;2022-09-13T02:04:08;96133.84;;;12.54
73894;BMP280;62699;50.534;12.784;2022-09-13T02:09:34;96125.66;;;12.41
73894;BMP280;62699;50.534;12.784;2022-09-13T02:15:09;96116.81;;;12.22
73894;BMP280;62699;50.534;12.784;2022-09-13T02:20:36;96113.09;;;12.25
73894;BMP280;62699;50.534;12.784;2022-09-13T02:25:58;96117.41;;;12.15
73894;BMP280;62699;50.534;12.784;2022-09-13T02:31:23;96119.59;;;12.16
73894;BMP280;62699;50.534;12.784;2022-09-13T02:36:45;96115.44;;;12.34
73894;BMP280;62699;50.534;12.784;2022-09-13T02:42:21;96105.25;;;12.27
73894;BMP280;62699;50.534;12.784;2022-09-13T02:47:58;96106.09;;;12.16
73894;BMP280;62699;50.534;12.784;2022-09-13T02:53:38;96098.56;;;12.09
73894;BMP280;62699;50.534;12.784;2022-09-13T02:59:14;96105.09;;;11.95
73894;BMP280;62699;50.534;12.784;2022-09-13T03:04:34;96094.72;;;11.80
73894;BMP280;62699;50.534;12.784;2022-09-13T03:10:05;96088.38;;;11.78
73894;BMP280;62699;50.534;12.784;2022-09-13T03:21:12;96068.06;;;11.96
73894;BMP280;62699;50.534;12.784;2022-09-13T03:27:01;96066.22;;;11.85
73894;BMP280;62699;50.534;12.784;2022-09-13T03:38:04;96049.16;;;11.77
73894;BMP280;62699;50.534;12.784;2022-09-13T03:43:30;96053.38;;;11.72
73894;BMP280;62699;50.534;12.784;2022-09-13T03:48:55;96047.06;;;11.64
73894;BMP280;62699;50.534;12.784;2022-09-13T03:54:19;96050.66;;;11.72
73894;BMP280;62699;50.534;12.784;2022-09-13T03:59:45;96046.25;;;11.69
73894;BMP280;62699;50.534;12.784;2022-09-13T04:05:06;96056.66;;;11.60
73894;BMP280;62699;50.534;12.784;2022-09-13T04:10:25;96061.50;;;11.67
73894;BMP280;62699;50.534;12.784;2022-09-13T04:15:44;96073.03;;;11.67
73894;BMP280;62699;50.534;12.784;2022-09-13T04:21:03;96069.09;;;11.68
73894;BMP280;62699;50.534;12.784;2022-09-13T04:26:23;96075.16;;;11.74
73894;BMP280;62699;50.534;12.784;2022-09-13T04:31:43;96081.66;;;11.60
73894;BMP280;62699;50.534;12.784;2022-09-13T04:37:02;96071.94;;;11.52
73894;BMP280;62699;50.534;12.784;2022-09-13T04:42:22;96070.19;;;11.54
73894;BMP280;62699;50.534;12.784;2022-09-13T04:47:41;96070.66;;;11.58
73894;BMP280;62699;50.534;12.784;2022-09-13T04:53:00;96063.25;;;11.64
73894;BMP280;62699;50.534;12.784;2022-09-13T04:58:20;96058.03;;;11.72
73894;BMP280;62699;50.534;12.784;2022-09-13T05:03:39;96062.44;;;11.69
73894;BMP280;62699;50.534;12.784;2022-09-13T05:08:59;96056.91;;;12.05
73894;BMP280;62699;50.534;12.784;2022-09-13T05:14:19;96043.81;;;12.14
73894;BMP280;62699;50.534;12.784;2022-09-13T05:19:39;96029.09;;;12.15
73894;BMP280;62699;50.534;12.784;2022-09-13T05:24:57;96026.44;;;12.47
73894;BMP280;62699;50.534;12.784;2022-09-13T05:30:17;96044.50;;;12.71
73894;BMP280;62699;50.534;12.784;2022-09-13T05:35:39;96033.75;;;12.84
73894;BMP280;62699;50.534;12.784;2022-09-13T05:41:01;96046.63;;;13.10
73894;BMP280;62699;50.534;12.784;2022-09-13T05:46:20;96035.22;;;13.43
73894;BMP280;62699;50.534;12.784;2022-09-13T05:51:40;96032.50;;;13.82
73894;BMP280;62699;50.534;12.784;2022-09-13T05:56:59;96036.50;;;14.28
73894;BMP280;62699;50.534;12.784;2022-09-13T06:02:19;96039.38;;;14.64
73894;BMP280;62699;50.534;12.784;2022-09-13T06:07:38;96034.88;;;15.08
73894;BMP280;62699;50.534;12.784;2022-09-13T06:13:25;96030.16;;;15.94
73894;BMP280;62699;50.534;12.784;2022-09-13T06:18:44;96031.00;;;17.15
73894;BMP280;62699;50.534;12.784;2022-09-13T06:24:04;96013.13;;;18.00
73894;BMP280;62699;50.534;12.784;2022-09-13T06:29:23;96015.63;;;16.88
73894;BMP280;62699;50.534;12.784;2022-09-13T06:34:43;96005.72;;;16.16
73894;BMP280;62699;50.534;12.784;2022-09-13T06:40:02;96004.19;;;15.85
73894;BMP280;62699;50.534;12.784;2022-09-13T06:45:22;96007.63;;;15.78
73894;BMP280;62699;50.534;12.784;2022-09-13T06:50:41;96004.91;;;15.86
73894;BMP280;62699;50.534;12.784;2022-09-13T06:56:07;96014.59;;;16.02
73894;BMP280;62699;50.534;12.784;2022-09-13T07:01:42;96016.53;;;16.83
73894;BMP280;62699;50.534;12.784;2022-09-13T07:07:01;96012.44;;;18.56
73894;BMP280;62699;50.534;12.784;2022-09-13T07:12:20;96008.34;;;19.07
73894;BMP280;62699;50.534;12.784;2022-09-13T07:17:40;96015.84;;;23.26
73894;BMP280;62699;50.534;12.784;2022-09-13T07:22:59;96012.00;;;24.68
73894;BMP280;62699;50.534;12.784;2022-09-13T07:28:18;96021.97;;;24.61
73894;BMP280;62699;50.534;12.784;2022-09-13T07:33:39;96037.22;;;25.88
73894;BMP280;62699;50.534;12.784;2022-09-13T07:38:59;96023.00;;;27.18
73894;BMP280;62699;50.534;12.784;2022-09-13T07:44:18;96016.03;;;28.27
73894;BMP280;62699;50.534;12.784;2022-09-13T07:49:37;96018.34;;;28.83
73894;BMP280;62699;50.534;12.784;2022-09-13T07:55:21;96023.25;;;28.49
73894;BMP280;62699;50.534;12.784;2022-09-13T08:00:41;96025.56;;;28.06
73894;BMP280;62699;50.534;12.784;2022-09-13T08:06:01;96027.16;;;27.49
73894;BMP280;62699;50.534;12.784;2022-09-13T08:11:27;96023.41;;;24.51
73894;BMP280;62699;50.534;12.784;2022-09-13T08:16:47;96031.34;;;23.21
73894;BMP280;62699;50.534;12.784;2022-09-13T08:22:06;96033.69;;;21.71
73894;BMP280;62699;50.534;12.784;2022-09-13T08:27:27;96032.53;;;20.97
73894;BMP280;62699;50.534;12.784;2022-09-13T08:32:50;96037.16;;;20.49
73894;BMP280;62699;50.534;12.784;2022-09-13T08:38:10;96051.78;;;20.08
73894;BMP280;62699;50.534;12.784;2022-09-13T08:49:23;96050.03;;;19.59
73894;BMP280;62699;50.534;12.784;2022-09-13T08:54:45;96033.41;;;19.30
73894;BMP280;62699;50.534;12.784;2022-09-13T09:00:33;96023.44;;;19.25
73894;BMP280;62699;50.534;12.784;2022-09-13T09:05:53;96017.91;;;19.32
73894;BMP280;62699;50.534;12.784;2022-09-13T09:11:56;96015.38;;;19.61
73894;BMP280;62699;50.534;12.784;2022-09-13T09:17:24;96025.34;;;20.10
73894;BMP280;62699;50.534;12.784;2022-09-13T09:22:45;96009.25;;;20.60
73894;BMP280;62699;50.534;12.784;2022-09-13T09:28:14;96000.97;;;20.96
73894;BMP280;62699;50.534;12.784;2022-09-13T09:39:52;96002.00;;;21.20
73894;BMP280;62699;50.534;12.784;2022-09-13T09:45:29;96006.47;;;21.35
73894;BMP280;62699;50.534;12.784;2022-09-13T09:50:52;95990.56;;;21.62
73894;BMP280;62699;50.534;12.784;2022-09-13T10:01:38;95976.19;;;22.54
73894;BMP280;62699;50.534;12.784;2022-09-13T10:07:30;95972.06;;;23.07
73894;BMP280;62699;50.534;12.784;2022-09-13T10:12:53;95967.03;;;23.03
73894;BMP280;62699;50.534;12.784;2022-09-13T10:18:17;95981.81;;;22.77
73894;BMP280;62699;50.534;12.784;2022-09-13T10:23:37;95967.03;;;22.40
73894;BMP280;62699;50.534;12.784;2022-09-13T10:29:08;95972.13;;;21.72
73894;BMP280;62699;50.534;12.784;2022-09-13T10:34:34;95978.63;;;22.07
73894;BMP280;62699;50.534;12.784;2022-09-13T10:40:32;95982.44;;;21.83
73894;BMP280;62699;50.534;12.784;2022-09-13T10:45:58;95966.59;;;22.22
73894;BMP280;62699;50.534;12.784;2022-09-13T10:51:34;95966.34;;;22.60
73894;BMP280;62699;50.534;12.784;2022-09-13T10:56:55;95955.22;;;23.33
73894;BMP280;62699;50.534;12.784;2022-09-13T11:36:09;95926.38;;;23.11
73894;BMP280;62699;50.534;12.784;2022-09-13T11:41:29;95924.19;;;23.66
73894;BMP280;62699;50.534;12.784;2022-09-13T11:52:52;95930.63;;;23.59
73894;BMP280;62699;50.534;12.784;2022-09-13T11:58:22;95917.88;;;23.75
73894;BMP280;62699;50.534;12.784;2022-09-13T12:03:58;95923.34;;;24.69
73894;BMP280;62699;50.534;12.784;2022-09-13T12:09:27;95918.25;;;23.92
73894;BMP280;62699;50.534;12.784;2022-09-13T12:14:53;95917.66;;;22.82
73894;BMP280;62699;50.534;12.784;2022-09-13T12:20:35;95916.09;;;22.37
73894;BMP280;62699;50.534;12.784;2022-09-13T12:26:01;95911.34;;;22.79
73894;BMP280;62699;50.534;12.784;2022-09-13T12:31:25;95899.25;;;22.30
73894;BMP280;62699;50.534;12.784;2022-09-13T13:05:48;95901.25;;;23.49
73894;BMP280;62699;50.534;12.784;2022-09-13T13:11:11;95894.66;;;22.87
73894;BMP280;62699;50.534;12.784;2022-09-13T13:16:38;95893.81;;;23.40
73894;BMP280;62699;50.534;12.784;2022-09-13T13:28:02;95883.69;;;23.55
73894;BMP280;62699;50.534;12.784;2022-09-13T13:33:26;95883.03;;;23.21
73894;BMP280;62699;50.534;12.784;2022-09-13T13:38:47;95874.50;;;23.73
73894;BMP280;62699;50.534;12.784;2022-09-13T14:00:45;95853.94;;;23.63
73894;BMP280;62699;50.534;12.784;2022-09-13T14:06:17;95853.22;;;23.50
73894;BMP280;62699;50.534;12.784;2022-09-13T14:22:49;95833.34;;;23.17
73894;BMP280;62699;50.534;12.784;2022-09-13T14:28:13;95839.69;;;23.20
73894;BMP280;62699;50.534;12.784;2022-09-13T14:33:35;95835.03;;;23.69
73894;BMP280;62699;50.534;12.784;2022-09-13T14:38:57;95840.41;;;23.67
73894;BMP280;62699;50.534;12.784;2022-09-13T14:44:21;95825.50;;;23.35
73894;BMP280;62699;50.534;12.784;2022-09-13T14:49:44;95818.59;;;23.34
73894;BMP280;62699;50.534;12.784;2022-09-13T14:55:10;95815.94;;;23.47
73894;BMP280;62699;50.534;12.784;2022-09-13T15:00:36;95801.59;;;23.37
73894;BMP280;62699;50.534;12.784;2022-09-13T15:05:59;95804.94;;;23.71
73894;BMP280;62699;50.534;12.784;2022-09-13T15:11:29;95804.47;;;23.51
73894;BMP280;62699;50.534;12.784;2022-09-13T15:16:51;95800.38;;;23.17
73894;BMP280;62699;50.534;12.784;2022-09-13T15:22:23;95803.78;;;23.39
73894;BMP280;62699;50.534;12.784;2022-09-13T15:27:44;95803.38;;;22.98
73894;BMP280;62699;50.534;12.784;2022-09-13T15:38:29;95811.16;;;23.02
73894;BMP280;62699;50.534;12.784;2022-09-13T15:43:49;95812.38;;;22.45
73894;BMP280;62699;50.534;12.784;2022-09-13T15:49:14;95813.16;;;22.57
73894;BMP280;62699;50.534;12.784;2022-09-13T15:54:38;95804.59;;;22.62
73894;BMP280;62699;50.534;12.784;2022-09-13T15:59:58;95797.59;;;22.71
73894;BMP280;62699;50.534;12.784;2022-09-13T16:05:19;95805.50;;;22.55
73894;BMP280;62699;50.534;12.784;2022-09-13T16:10:38;95806.00;;;22.52
73894;BMP280;62699;50.534;12.784;2022-09-13T16:16:00;95805.63;;;22.57
73894;BMP280;62699;50.534;12.784;2022-09-13T16:21:19;95812.91;;;22.53
73894;BMP280;62699;50.534;12.784;2022-09-13T16:27:02;95808.94;;;21.81
73894;BMP280;62699;50.534;12.784;2022-09-13T16:32:43;95816.06;;;21.95
73894;BMP280;62699;50.534;12.784;2022-09-13T16:38:07;95815.19;;;21.93
73894;BMP280;62699;50.534;12.784;2022-09-13T16:43:27;95813.81;;;21.61
73894;BMP280;62699;50.534;12.784;2022-09-13T16:48:54;95821.81;;;21.38
73894;BMP280;62699;50.534;12.784;2022-09-13T16:54:13;95821.59;;;21.55
73894;BMP280;62699;50.534;12.784;2022-09-13T16:59:43;95825.47;;;21.31
73894;BMP280;62699;50.534;12.784;2022-09-13T17:05:13;95833.16;;;21.03
73894;BMP280;62699;50.534;12.784;2022-09-13T17:10:37;95824.41;;;20.76
73894;BMP280;62699;50.534;12.784;2022-09-13T17:15:59;95837.53;;;20.59
73894;BMP280;62699;50.534;12.784;2022-09-13T17:21:25;95831.59;;;20.43
73894;BMP280;62699;50.534;12.784;2022-09-13T17:26:47;95827.00;;;20.26
73894;BMP280;62699;50.534;12.784;2022-09-13T17:32:07;95820.72;;;19.87
73894;BMP280;62699;50.534;12.784;2022-09-13T17:37:27;95805.94;;;19.18
73894;BMP280;62699;50.534;12.784;2022-09-13T17:42:46;95806.00;;;18.49
73894;BMP280;62699;50.534;12.784;2022-09-13T17:48:06;95809.06;;;18.36
73894;BMP280;62699;50.534;12.784;2022-09-13T17:53:27;95801.19;;;18.23
73894;BMP280;62699;50.534;12.784;2022-09-13T17:58:47;95802.03;;;18.08
73894;BMP280;62699;50.534;12.784;2022-09-13T18:04:07;95801.13;;;17.89
73894;BMP280;62699;50.534;12.784;2022-09-13T18:09:26;95809.59;;;17.75
73894;BMP280;62699;50.534;12.784;2022-09-13T18:14:46;95809.09;;;18.11
73894;BMP280;62699;50.534;12.784;2022-09-13T18:20:05;95806.34;;;18.70
73894;BMP280;62699;50.534;12.784;2022-09-13T18:25:24;95804.19;;;18.52
73894;BMP280;62699;50.534;12.784;2022-09-13T18:30:50;95810.91;;;18.68
73894;BMP280;62699;50.534;12.784;2022-09-13T18:36:13;95811.72;;;18.61
73894;BMP280;62699;50.534;12.784;2022-09-13T18:41:37;95799.38;;;18.43
73894;BMP280;62699;50.534;12.784;2022-09-13T18:47:00;95807.75;;;18.20
73894;BMP280;62699;50.534;12.784;2022-09-13T18:52:21;95798.38;;;18.13
73894;BMP280;62699;50.534;12.784;2022-09-13T18:57:49;95804.03;;;18.08
73894;BMP280;62699;50.534;12.784;2022-09-13T19:03:09;95804.94;;;18.10
73894;BMP280;62699;50.534;12.784;2022-09-13T19:08:28;95799.91;;;18.07
73894;BMP280;62699;50.534;12.784;2022-09-13T19:13:47;95800.81;;;18.02
73894;BMP280;62699;50.534;12.784;2022-09-13T19:19:08;95799.94;;;17.99
73894;BMP280;62699;50.534;12.784;2022-09-13T19:24:26;95796.47;;;17.81
73894;BMP280;62699;50.534;12.784;2022-09-13T19:29:47;95807.16;;;17.62
73894;BMP280;62699;50.534;12.784;2022-09-13T19:35:06;95800.78;;;17.35
73894;BMP280;62699;50.534;12.784;2022-09-13T19:40:27;95807.50;;;17.34
73894;BMP280;62699;50.534;12.784;2022-09-13T19:45:54;95797.91;;;17.33
73894;BMP280;62699;50.534;12.784;2022-09-13T19:51:16;95798.63;;;17.34
73894;BMP280;62699;50.534;12.784;2022-09-13T19:56:37;95791.81;;;17.17
73894;BMP280;62699;50.534;12.784;2022-09-13T20:02:01;95803.38;;;16.86
73894;BMP280;62699;50.534;12.784;2022-09-13T20:07:22;95800.50;;;16.76
73894;BMP280;62699;50.534;12.784;2022-09-13T20:12:41;95795.31;;;16.55
73894;BMP280;62699;50.534;12.784;2022-09-13T20:18:00;95802.50;;;16.83
73894;BMP280;62699;50.534;12.784;2022-09-13T20:23:20;95799.56;;;16.81
73894;BMP280;62699;50.534;12.784;2022-09-13T20:28:56;95806.09;;;16.86
73894;BMP280;62699;50.534;12.784;2022-09-13T20:34:16;95805.56;;;16.79
73894;BMP280;62699;50.534;12.784;2022-09-13T20:39:35;95797.75;;;16.84
73894;BMP280;62699;50.534;12.784;2022-09-13T20:44:54;95800.31;;;16.82
73894;BMP280;62699;50.534;12.784;2022-09-13T20:50:18;95793.06;;;16.76
73894;BMP280;62699;50.534;12.784;2022-09-13T20:55:39;95795.25;;;16.70
73894;BMP280;62699;50.534;12.784;2022-09-13T21:01:24;95791.72;;;16.45
73894;BMP280;62699;50.534;12.784;2022-09-13T21:06:47;95798.97;;;16.35
73894;BMP280;62699;50.534;12.784;2022-09-13T21:12:28;95794.63;;;16.32
73894;BMP280;62699;50.534;12.784;2022-09-13T21:17:56;95797.00;;;16.05
73894;BMP280;62699;50.534;12.784;2022-09-13T21:23:15;95796.31;;;16.05
73894;BMP280;62699;50.534;12.784;2022-09-13T21:28:35;95797.53;;;16.19
73894;BMP280;62699;50.534;12.784;2022-09-13T21:34:03;95802.59;;;16.22
73894;BMP280;62699;50.534;12.784;2022-09-13T21:39:24;95801.16;;;16.37
73894;BMP280;62699;50.534;12.784;2022-09-13T21:44:43;95789.22;;;16.24
73894;BMP280;62699;50.534;12.784;2022-09-13T21:50:02;95794.28;;;16.05
73894;BMP280;62699;50.534;12.784;2022-09-13T21:55:21;95801.91;;;15.99
73894;BMP280;62699;50.534;12.784;2022-09-13T22:00:41;95804.81;;;15.94
73894;BMP280;62699;50.534;12.784;2022-09-13T22:06:01;95799.19;;;16.14
73894;BMP280;62699;50.534;12.784;2022-09-13T22:11:21;95792.88;;;16.04
73894;BMP280;62699;50.534;12.784;2022-09-13T22:16:42;95787.25;;;16.10
73894;BMP280;62699;50.534;12.784;2022-09-13T22:22:02;95783.97;;;15.96
73894;BMP280;62699;50.534;12.784;2022-09-13T22:27:21;95793.56;;;15.90
73894;BMP280;62699;50.534;12.784;2022-09-13T22:32:41;95780.72;;;15.98
73894;BMP280;62699;50.534;12.784;2022-09-13T22:38:00;95778.38;;;16.02
73894;BMP280;62699;50.534;12.784;2022-09-13T22:43:20;95759.72;;;15.91
73894;BMP280;62699;50.534;12.784;2022-09-13T22:48:39;95770.56;;;15.75
73894;BMP280;62699;50.534;12.784;2022-09-13T22:54:02;95761.91;;;15.85
73894;BMP280;62699;50.534;12.784;2022-09-13T22:59:21;95752.66;;;15.88
73894;BMP280;62699;50.534;12.784;2022-09-13T23:04:41;95759.88;;;15.32
73894;BMP280;62699;50.534;12.784;2022-09-13T23:10:00;95759.91;;;15.62
73894;BMP280;62699;50.534;12.784;2022-09-13T23:15:20;95778.88;;;15.62
73894;BMP280;62699;50.534;12.784;2022-09-13T23:20:39;95797.13;;;15.39
73894;BMP280;62699;50.534;12.784;2022-09-13T23:31:26;95773.69;;;15.06
73894;BMP280;62699;50.534;12.784;2022-09-13T23:36:47;95765.97;;;15.25
73894;BMP280;62699;50.534;12.784;2022-09-13T23:42:06;95759.53;;;15.43
73894;BMP280;62699;50.534;12.784;2022-09-13T23:47:26;95767.50;;;15.71
73894;BMP280;62699;50.534;12.784;2022-09-13T23:52:45;95769.50;;;15.71
73894;BMP280;62699;50.534;12.784;2022-09-13T23:58:05;95766.06;;;15.70
